Time;durP1;ratioP1;P1;durP2;ratioP2;P2;SDS_P1;SDS_P2;PMS_P1;PMS_P2;Temp;Humidity;BMP_temperature;BMP_pressure;BME280_temperature;BME280_humidity;BME280_pressure;Samples;Min_cycle;Max_cycle;Signal;HPM_P1;HPM_P2
2021/09/02 02:04:20;;;;;;;15.53;13.90;;;12.20;99.90;;;;;;5021808;23;20469;-90
2021/09/02 02:58:49;;;;;;;16.57;13.23;;;11.60;99.90;;;;;;5122640;23;20501;-91
2021/09/02 03:39:37;;;;;;;17.33;13.00;;;11.50;99.90;;;;;;5715740;23;21851;-89
2021/09/02 04:10:09;;;;;;;24.97;13.40;;;11.10;99.90;;;;;;5069843;23;20488;-90
2021/09/02 04:12:35;;;;;;;23.93;14.23;;;11.10;99.90;;;;;;5011097;23;20502;-89
2021/09/02 04:15:26;;;;;;;27.70;15.40;;;11.90;99.90;;;;;;4883219;29;20415;-90
2021/09/02 04:23:46;;;;;;;21.17;13.40;;;11.00;99.90;;;;;;4984242;23;20505;-91
2021/09/02 04:26:16;;;;;;;28.07;15.60;;;10.70;99.90;;;;;;4886226;29;20426;-91
2021/09/02 04:29:05;;;;;;;19.43;13.63;;;10.00;99.90;;;;;;4902341;29;20422;-91
2021/09/02 04:32:03;;;;;;;24.17;13.97;;;11.40;99.90;;;;;;4886380;29;20441;-90
2021/09/02 04:35:05;;;;;;;25.43;13.90;;;10.60;99.90;;;;;;4884258;29;20429;-90
2021/09/02 04:38:07;;;;;;;17.27;13.10;;;12.00;99.90;;;;;;4887169;29;20432;-91
2021/09/02 04:41:01;;;;;;;26.87;14.57;;;10.90;99.90;;;;;;5003899;23;20493;-91
2021/09/02 04:46:28;;;;;;;16.67;12.80;;;11.00;99.90;;;;;;5063415;23;20485;-87
2021/09/02 04:48:56;;;;;;;19.13;12.70;;;12.20;99.90;;;;;;4880645;29;20437;-90
2021/09/02 04:51:43;;;;;;;21.50;15.70;;;11.10;99.90;;;;;;4885132;29;20468;-91
2021/09/02 04:54:32;;;;;;;24.47;15.20;;;11.20;99.90;;;;;;4881262;29;20457;-90
2021/09/02 05:02:43;;;;;;;19.07;14.03;;;10.90;99.90;;;;;;4937936;23;20517;-91
2021/09/02 05:08:02;;;;;;;26.30;14.00;;;11.00;99.90;;;;;;4545802;23;10001315;-90
2021/09/02 05:10:44;;;;;;;;;;;;;;;;;;;;;
2021/09/02 05:13:27;;;;;;;;;;;;;;;;;;;;;
2021/09/02 05:16:08;;;;;;;18.37;12.90;;;12.30;99.90;;;;;;4927392;24;20522;-89
2021/09/02 05:18:49;;;;;;;19.17;14.23;;;11.00;99.90;;;;;;4864021;29;20494;-90
2021/09/02 05:23:54;;;;;;;16.80;12.30;;;11.10;99.90;;;;;;4875533;29;20558;-91
2021/09/02 05:26:23;;;;;;;18.33;12.97;;;11.60;99.90;;;;;;4846303;29;20471;-88
2021/09/02 05:28:51;;;;;;;14.97;12.40;;;11.50;99.90;;;;;;4860866;29;20463;-93
2021/09/02 05:31:17;;;;;;;17.43;12.50;;;11.20;99.90;;;;;;4855590;29;20498;-91
2021/09/02 05:33:45;;;;;;;18.47;13.13;;;12.10;99.90;;;;;;4858133;29;20429;-90
2021/09/02 05:36:13;;;;;;;19.83;14.23;;;11.20;99.90;;;;;;4855891;29;20434;-90
2021/09/02 05:38:44;;;;;;;16.73;12.70;;;12.30;99.90;;;;;;4855047;29;20458;-88
2021/09/02 05:41:10;;;;;;;20.33;13.40;;;11.50;99.90;;;;;;4852431;29;20439;-86
2021/09/02 05:43:36;;;;;;;14.20;12.77;;;13.70;99.90;;;;;;4848815;29;21030;-85
2021/09/02 05:46:02;;;;;;;13.73;12.23;;;12.40;99.90;;;;;;4853096;29;20210;-86
2021/09/02 05:48:30;;;;;;;15.07;11.77;;;13.30;99.90;;;;;;4867095;29;20215;-88
2021/09/02 05:50:56;;;;;;;12.53;10.50;;;13.30;99.90;;;;;;4868903;29;20437;-87
2021/09/02 05:53:23;;;;;;;14.70;11.27;;;12.90;99.90;;;;;;4852045;29;20462;-88
2021/09/02 05:55:50;;;;;;;12.17;10.30;;;11.90;99.90;;;;;;4856148;29;20173;-90
2021/09/02 05:58:20;;;;;;;12.97;11.23;;;12.30;99.90;;;;;;4860942;29;20453;-85
2021/09/02 06:00:48;;;;;;;13.67;10.07;;;12.10;99.90;;;;;;4877740;29;20450;-83
2021/09/02 06:03:35;;;;;;;15.60;10.73;;;14.60;99.90;;;;;;4873200;29;20423;-89
2021/09/02 06:06:00;;;;;;;14.20;9.63;;;15.20;99.90;;;;;;4869061;29;20442;-85
2021/09/02 06:08:26;;;;;;;11.03;9.93;;;15.60;98.90;;;;;;4868723;29;20430;-88
2021/09/02 06:10:51;;;;;;;13.00;10.40;;;14.50;96.10;;;;;;4869863;29;20177;-88
2021/09/02 06:13:17;;;;;;;16.43;11.20;;;15.80;96.00;;;;;;4848438;29;20277;-85
2021/09/02 06:15:42;;;;;;;10.80;9.77;;;15.30;93.60;;;;;;4839878;29;20193;-84
2021/09/02 06:18:08;;;;;;;11.33;10.00;;;15.50;91.70;;;;;;4858514;29;20177;-85
2021/09/02 06:20:36;;;;;;;11.73;10.40;;;15.90;90.30;;;;;;4858422;29;20686;-85
2021/09/02 06:23:04;;;;;;;11.93;10.83;;;16.30;88.80;;;;;;4855445;29;20226;-89
2021/09/02 06:26:00;;;;;;;12.67;10.20;;;17.30;86.70;;;;;;4860544;29;20457;-92
2021/09/02 06:28:52;;;;;;;12.37;11.17;;;16.00;82.20;;;;;;4858441;29;20818;-89
2021/09/02 06:31:19;;;;;;;11.80;10.70;;;17.00;83.20;;;;;;4869538;29;20435;-89
2021/09/02 06:33:48;;;;;;;11.70;10.63;;;16.40;79.50;;;;;;4869177;29;20915;-91
2021/09/02 06:36:23;;;;;;;;;;;;;;;;;;;;;
2021/09/02 06:38:51;;;;;;;11.67;10.47;;;17.20;77.80;;;;;;4875005;29;20461;-92
2021/09/02 06:41:17;;;;;;;11.10;10.10;;;18.20;76.90;;;;;;4864883;29;20418;-90
2021/09/02 06:44:10;;;;;;;12.07;10.80;;;18.90;74.10;;;;;;4880971;29;20426;-93
2021/09/02 06:46:38;;;;;;;12.17;11.07;;;20.00;71.70;;;;;;4875050;29;20670;-91
2021/09/02 06:49:07;;;;;;;12.87;11.50;;;18.80;70.80;;;;;;4849778;29;20432;-88
2021/09/02 06:51:32;;;;;;;11.47;10.57;;;21.00;70.30;;;;;;4839125;29;20450;-86
2021/09/02 06:53:58;;;;;;;14.00;12.73;;;21.10;68.60;;;;;;4833119;29;20451;-89
2021/09/02 06:56:28;;;;;;;13.03;11.83;;;20.90;66.80;;;;;;4857007;29;20200;-91
2021/09/02 06:59:14;;;;;;;;;;;;;;;;;;;;;
2021/09/02 07:01:59;;;;;;;12.47;11.27;;;20.20;60.30;;;;;;4859101;29;20269;-91
2021/09/02 07:04:29;;;;;;;13.93;11.13;;;21.40;59.70;;;;;;4882269;29;20422;-90
2021/09/02 07:06:55;;;;;;;13.03;11.73;;;21.90;59.70;;;;;;4897352;29;20457;-89
2021/09/02 07:09:20;;;;;;;12.80;11.30;;;21.30;57.50;;;;;;4882755;29;20441;-90
2021/09/02 07:11:46;;;;;;;12.43;10.80;;;24.10;60.50;;;;;;4874967;29;20205;-88
2021/09/02 07:14:12;;;;;;;11.50;10.40;;;24.30;61.60;;;;;;4868239;29;20202;-88
2021/09/02 07:16:38;;;;;;;11.97;10.93;;;23.10;56.10;;;;;;4862771;29;20250;-88
2021/09/02 07:19:03;;;;;;;11.60;10.37;;;24.70;57.90;;;;;;4863812;29;20454;-88
2021/09/02 07:21:29;;;;;;;12.00;10.77;;;24.90;57.20;;;;;;4864015;29;20182;-88
2021/09/02 07:23:55;;;;;;;12.23;11.10;;;23.60;55.60;;;;;;4865021;29;20182;-86
2021/09/02 07:26:20;;;;;;;11.50;10.50;;;25.10;56.30;;;;;;4863835;29;20193;-88
2021/09/02 07:28:46;;;;;;;11.17;10.17;;;25.00;55.30;;;;;;4864971;29;20178;-86
2021/09/02 07:31:15;;;;;;;12.30;10.73;;;26.10;55.20;;;;;;4862441;29;20209;-87
2021/09/02 07:33:41;;;;;;;12.50;11.40;;;24.80;53.60;;;;;;4864732;29;20426;-89
2021/09/02 07:36:06;;;;;;;13.27;12.05;;;25.50;53.50;;;;;;4528006;29;10000274;-86
2021/09/02 07:38:34;;;;;;;13.83;11.57;;;24.30;53.50;;;;;;4862821;29;20420;-89
2021/09/02 07:41:00;;;;;;;13.43;12.13;;;24.30;53.50;;;;;;4863406;29;20542;-88
2021/09/02 07:43:28;;;;;;;12.63;11.33;;;24.00;53.70;;;;;;4861839;29;20423;-89
2021/09/02 07:45:53;;;;;;;13.57;12.17;;;24.30;54.00;;;;;;4864481;29;20242;-90
2021/09/02 07:48:19;;;;;;;13.23;11.87;;;24.70;53.70;;;;;;4860907;29;20490;-87
2021/09/02 07:50:44;;;;;;;13.53;12.40;;;24.60;53.30;;;;;;4849508;29;20177;-87
2021/09/02 07:53:10;;;;;;;13.23;11.90;;;25.20;53.20;;;;;;4864154;29;20197;-89
2021/09/02 07:55:36;;;;;;;15.37;12.33;;;25.20;53.20;;;;;;4870996;29;20238;-89
2021/09/02 07:58:04;;;;;;;15.30;12.63;;;25.40;54.40;;;;;;4863475;29;20244;-88
2021/09/02 08:00:30;;;;;;;13.80;12.60;;;24.50;53.50;;;;;;4863483;29;20197;-87
2021/09/02 08:02:58;;;;;;;14.07;12.00;;;25.60;55.10;;;;;;4866852;29;20415;-90
2021/09/02 08:05:56;;;;;;;17.60;14.60;;;23.10;53.70;;;;;;4891718;29;20193;-91
2021/09/02 08:08:23;;;;;;;13.33;12.13;;;23.90;54.00;;;;;;4854066;29;20473;-89
2021/09/02 08:10:49;;;;;;;13.57;11.57;;;23.90;54.90;;;;;;4854138;29;20434;-91
2021/09/02 08:13:18;;;;;;;14.30;13.00;;;24.80;54.90;;;;;;4869701;29;20427;-89
2021/09/02 08:15:44;;;;;;;12.50;11.40;;;24.00;54.30;;;;;;4870465;29;20642;-88
2021/09/02 08:18:10;;;;;;;20.43;12.17;;;25.00;56.60;;;;;;4861783;29;20427;-88
2021/09/02 08:20:36;;;;;;;15.40;13.73;;;25.00;55.50;;;;;;4852315;29;20253;-87
2021/09/02 08:23:05;;;;;;;15.07;13.50;;;23.60;55.00;;;;;;4868518;29;20414;-87
2021/09/02 08:25:31;;;;;;;13.03;11.87;;;23.80;55.20;;;;;;4868865;29;20754;-90
2021/09/02 08:27:57;;;;;;;11.93;10.83;;;26.10;55.60;;;;;;4850255;29;20514;-90
2021/09/02 08:30:24;;;;;;;13.40;10.17;;;;;;;;;;4866635;29;20430;-87
2021/09/02 08:32:51;;;;;;;13.30;10.63;;;25.80;51.80;;;;;;4865775;29;20201;-89
2021/09/02 08:35:23;;;;;;;10.90;10.00;;;26.10;51.50;;;;;;4867849;29;20466;-88
2021/09/02 08:37:50;;;;;;;12.47;11.20;;;26.60;49.90;;;;;;4516430;29;10000283;-86
2021/09/02 08:40:18;;;;;;;12.77;11.53;;;26.30;49.60;;;;;;4868437;29;20189;-88
2021/09/02 08:42:47;;;;;;;13.50;10.20;;;;;;;;;;4867584;29;20431;-91
2021/09/02 08:45:16;;;;;;;10.00;9.20;;;;;;;;;;4866348;29;20570;-89
2021/09/02 08:47:45;;;;;;;11.47;10.07;;;;;;;;;;4863716;29;20630;-89
2021/09/02 08:50:11;;;;;;;12.43;10.70;;;;;;;;;;4864991;29;20430;-85
2021/09/02 08:52:37;;;;;;;12.13;11.00;;;;;;;;;;4868619;29;20415;-87
2021/09/02 08:55:04;;;;;;;12.20;10.23;;;;;;;;;;4866606;29;20470;-89
2021/09/02 08:57:32;;;;;;;11.70;10.60;;;;;;;;;;4866430;29;20423;-88
2021/09/02 08:59:58;;;;;;;10.83;10.03;;;;;;;;;;4862772;29;21158;-85
2021/09/02 09:02:26;;;;;;;11.40;10.33;;;;;;;;;;4854981;29;20427;-85
2021/09/02 09:05:02;;;;;;;12.00;10.93;;;;;;;;;;4851385;29;20427;-90
2021/09/02 09:08:07;;;;;;;11.30;10.20;;;;;;;;;;4846737;29;20495;-87
2021/09/02 09:10:33;;;;;;;11.80;10.60;;;;;;;;;;4845800;29;20452;-84
2021/09/02 09:13:02;;;;;;;11.70;10.60;;;;;;;;;;4845992;29;20431;-87
2021/09/02 09:15:29;;;;;;;12.47;11.57;;;;;;;;;;4845171;29;20404;-89
2021/09/02 09:17:56;;;;;;;11.40;10.30;;;;;;;;;;4849003;29;20760;-89
2021/09/02 09:20:24;;;;;;;9.83;8.97;;;;;;;;;;4846895;29;20415;-89
2021/09/02 09:22:57;;;;;;;11.07;9.90;;;;;;;;;;4845921;29;20435;-88
2021/09/02 09:25:24;;;;;;;10.80;9.80;;;;;;;;;;4860346;29;20423;-87
2021/09/02 09:27:51;;;;;;;9.63;8.90;;;;;;;;;;4864066;29;20474;-92
2021/09/02 09:30:19;;;;;;;11.63;10.27;;;;;;;;;;4863696;29;20447;-90
2021/09/02 09:32:48;;;;;;;10.43;9.43;;;;;;;;;;4865256;29;20779;-93
2021/09/02 09:35:16;;;;;;;11.53;10.43;;;;;;;;;;4864328;29;20434;-89
2021/09/02 09:37:43;;;;;;;11.20;10.17;;;;;;;;;;4864528;29;20415;-86
2021/09/02 09:40:09;;;;;;;11.20;10.30;;;;;;;;;;4878877;29;20499;-88
2021/09/02 09:42:35;;;;;;;11.77;10.23;;;;;;;;;;4866713;29;20423;-88
2021/09/02 09:45:01;;;;;;;11.17;10.00;;;;;;;;;;4878260;29;20518;-89
2021/09/02 09:47:27;;;;;;;12.73;11.07;;;;;;;;;;4865866;29;20470;-90
2021/09/02 09:49:58;;;;;;;11.60;10.63;;;;;;;;;;4879921;29;20858;-88
2021/09/02 09:52:29;;;;;;;12.03;10.60;;;;;;;;;;4882841;29;20446;-89
2021/09/02 09:55:02;;;;;;;11.97;11.07;;;;;;;;;;4867255;29;20411;-88
2021/09/02 09:57:30;;;;;;;13.30;10.70;;;;;;;;;;4879192;29;20467;-88
2021/09/02 10:00:02;;;;;;;10.73;9.80;;;;;;;;;;4865455;29;20466;-87
2021/09/02 10:02:31;;;;;;;11.97;10.87;;;;;;;;;;4865812;29;20427;-91
2021/09/02 10:04:57;;;;;;;13.40;11.50;;;;;;;;;;4863323;29;20511;-91
2021/09/02 10:07:23;;;;;;;11.97;10.90;;;;;;;;;;4860694;29;21011;-88
2021/09/02 10:09:54;;;;;;;15.90;11.03;;;;;;;;;;4846912;29;20420;-87
2021/09/02 10:12:22;;;;;;;11.97;10.87;;;;;;;;;;4850735;29;20984;-91
2021/09/02 10:14:49;;;;;;;10.67;9.80;;;;;;;;;;4867223;29;20442;-90
2021/09/02 10:17:17;;;;;;;11.90;10.80;;;;;;;;;;4186643;29;10000646;-92
2021/09/02 10:19:44;;;;;;;11.67;10.50;;;;;;;;;;4868319;29;20182;-88
2021/09/02 10:22:13;;;;;;;10.97;10.07;;;;;;;;;;4865703;29;20525;-88
2021/09/02 10:24:40;;;;;;;12.83;11.73;;;;;;;;;;4869201;29;20754;-90
2021/09/02 10:27:18;;;;;;;11.37;10.13;;;;;;;;;;4869029;29;20946;-91
2021/09/02 10:29:45;;;;;;;11.57;10.63;;;;;;;;;;4870805;29;20442;-89
2021/09/02 10:32:26;;;;;;;11.97;11.07;;;;;;;;;;4870235;29;20490;-89
2021/09/02 10:34:55;;;;;;;14.80;10.23;;;;;;;;;;4871834;29;20454;-86
2021/09/02 10:37:46;;;;;;;;;;;;;;;;;;;;;
2021/09/02 10:40:19;;;;;;;10.27;9.27;;;;;;;;;;4874914;29;20462;-92
2021/09/02 10:42:47;;;;;;;10.23;9.27;;;;;;;;;;4874757;29;20451;-88
2021/09/02 10:45:25;;;;;;;12.87;8.90;;;;;;;;;;4873801;29;20426;-86
2021/09/02 10:47:54;;;;;;;9.80;8.83;;;;;;;;;;4872127;29;20462;-88
2021/09/02 10:50:27;;;;;;;10.53;9.70;;;;;;;;;;4871520;29;20942;-93
2021/09/02 10:53:09;;;;;;;17.00;15.37;;;;;;;;;;4872220;29;20546;-92
2021/09/02 10:55:36;;;;;;;11.70;10.57;;;;;;;;;;4874655;29;20407;-91
2021/09/02 10:58:04;;;;;;;11.87;10.87;;;;;;;;;;4874201;29;20478;-91
2021/09/02 11:00:40;;;;;;;9.30;8.63;;;;;;;;;;4873438;29;20434;-94
2021/09/02 11:03:16;;;;;;;10.87;9.87;;;;;;;;;;4869913;29;20431;-86
2021/09/02 11:05:43;;;;;;;9.90;8.83;;;;;;;;;;4867626;29;20433;-89
2021/09/02 11:08:12;;;;;;;12.53;11.37;;;;;;;;;;4863995;29;20478;-86
2021/09/02 11:10:38;;;;;;;10.57;9.60;;;;;;;;;;4848829;29;20416;-89
2021/09/02 11:13:05;;;;;;;9.27;8.60;;;;;;;;;;4867144;29;20419;-89
2021/09/02 11:15:32;;;;;;;9.53;8.63;;;;;;;;;;4872441;29;20410;-88
2021/09/02 11:18:08;;;;;;;9.93;9.03;;;;;;;;;;4871984;29;20856;-95
2021/09/02 11:20:35;;;;;;;9.63;8.83;;;;;;;;;;4871208;29;20418;-90
2021/09/02 11:23:11;;;;;;;9.90;9.17;;;;;;;;;;4872737;29;20903;-91
2021/09/02 11:25:51;;;;;;;38.13;35.03;;;;;;;;;;4871392;29;20434;-90
2021/09/02 11:28:18;;;;;;;8.97;8.27;;;;;;;;;;4869399;29;20477;-91
2021/09/02 11:30:50;;;;;;;21.80;15.53;;;;;;;;;;4869301;29;20466;-89
2021/09/02 11:33:21;;;;;;;10.70;9.77;;;;;;;;;;4533166;29;10000084;-88
2021/09/02 11:36:01;;;;;;;31.07;17.37;;;;;;;;;;4868748;29;20194;-89
2021/09/02 11:38:28;;;;;;;10.33;9.37;;;;;;;;;;4852564;29;20915;-92
2021/09/02 11:40:57;;;;;;;19.47;17.27;;;;;;;;;;4867810;29;20447;-89
2021/09/02 11:43:23;;;;;;;22.07;20.17;;;;;;;;;;4868800;29;20439;-91
2021/09/02 11:45:54;;;;;;;11.43;10.50;;;;;;;;;;4868228;29;20451;-90
2021/09/02 11:48:21;;;;;;;10.97;10.07;;;;;;;;;;4868094;29;20459;-87
2021/09/02 11:50:56;;;;;;;11.00;10.10;;;;;;;;;;4868918;29;20423;-87
2021/09/02 11:53:26;;;;;;;10.13;9.23;;;;;;;;;;4854133;29;20935;-88
2021/09/02 11:55:56;;;;;;;9.67;9.03;;;;;;;;;;4868361;29;20426;-92
2021/09/02 11:58:25;;;;;;;8.87;8.10;;;;;;;;;;4867348;29;20470;-87
2021/09/02 12:01:02;;;;;;;9.57;8.77;;;;;;;;;;4868391;29;20494;-89
2021/09/02 12:03:37;;;;;;;9.20;8.43;;;;;;;;;;4867278;29;20423;-93
2021/09/02 12:06:03;;;;;;;9.87;8.97;;;;;;;;;;4869125;29;20517;-88
2021/09/02 12:08:43;;;;;;;;;;;;;;;;;;;;;
2021/09/02 12:11:09;;;;;;;9.40;8.80;;;32.60;36.00;;;;;;4871452;29;20494;-92
2021/09/02 12:13:37;;;;;;;29.63;26.43;;;32.10;37.80;;;;;;4865778;29;20426;-91
2021/09/02 12:16:04;;;;;;;20.60;18.53;;;32.60;36.70;;;;;;4865580;29;20418;-87
2021/09/02 12:18:30;;;;;;;51.53;41.50;;;33.30;36.10;;;;;;4864488;29;20422;-87
2021/09/02 12:21:18;;;;;;;15.67;13.90;;;32.40;36.80;;;;;;4863897;29;20433;-88
2021/09/02 12:23:58;;;;;;;13.50;12.20;;;32.00;36.60;;;;;;4864337;29;20460;-87
2021/09/02 12:26:42;;;;;;;14.03;10.97;;;31.20;37.30;;;;;;4865401;29;20418;-89
2021/09/02 12:29:16;;;;;;;10.17;9.30;;;31.20;37.90;;;;;;4865386;29;20897;-88
2021/09/02 12:31:43;;;;;;;10.30;9.40;;;31.80;37.90;;;;;;4864023;29;20639;-88
2021/09/02 12:34:18;;;;;;;10.77;10.00;;;32.80;36.50;;;;;;4848213;29;20415;-87
2021/09/02 12:36:45;;;;;;;10.20;9.40;;;33.60;35.80;;;;;;4864001;29;20882;-91
2021/09/02 12:39:20;;;;;;;9.57;8.87;;;34.30;35.50;;;;;;4864443;29;20427;-87
2021/09/02 12:41:58;;;;;;;9.80;9.10;;;35.00;34.70;;;;;;4864559;29;20922;-90
2021/09/02 12:44:28;;;;;;;10.83;10.00;;;34.90;34.40;;;;;;4870113;29;20497;-89
2021/09/02 12:47:12;;;;;;;9.80;9.03;;;35.00;34.50;;;;;;4867159;29;20462;-90
2021/09/02 12:49:37;;;;;;;16.20;14.70;;;34.90;34.20;;;;;;4867428;29;20423;-89
2021/09/02 12:52:51;;;;;;;11.27;10.47;;;35.20;34.70;;;;;;4866160;29;20474;-83
2021/09/02 12:55:25;;;;;;;17.60;15.93;;;35.00;34.20;;;;;;4870594;29;20177;-89
2021/09/02 12:57:52;;;;;;;20.37;18.33;;;35.10;35.20;;;;;;4855289;29;20506;-88
2021/09/02 13:00:40;;;;;;;;;;;;;;;;;;;;;
2021/09/02 13:03:14;;;;;;;18.30;16.53;;;32.40;35.40;;;;;;4868626;29;20529;-91
2021/09/02 13:05:40;;;;;;;14.10;12.70;;;33.20;38.30;;;;;;4870239;29;20441;-88
2021/09/02 13:08:08;;;;;;;11.90;10.73;;;30.90;38.20;;;;;;4855388;29;20489;-88
2021/09/02 13:10:40;;;;;;;9.80;8.90;;;30.50;38.20;;;;;;4853407;29;20423;-87
2021/09/02 13:13:14;;;;;;;14.53;12.90;;;31.50;38.80;;;;;;4871772;29;20407;-89
2021/09/02 13:15:41;;;;;;;11.43;10.30;;;31.40;38.00;;;;;;4870228;29;20882;-88
2021/09/02 13:18:15;;;;;;;10.07;9.17;;;32.20;39.30;;;;;;4869961;29;20419;-91
2021/09/02 13:20:42;;;;;;;10.37;9.53;;;31.50;38.60;;;;;;4855811;29;20422;-88
2021/09/02 13:23:11;;;;;;;13.27;12.00;;;32.00;37.20;;;;;;4871403;29;20418;-88
2021/09/02 13:25:58;;;;;;;27.33;24.10;;;32.50;38.10;;;;;;4872439;29;20507;-90
2021/09/02 13:28:28;;;;;;;9.83;9.13;;;32.40;37.60;;;;;;4869937;29;20470;-86
2021/09/02 13:30:59;;;;;;;13.43;12.10;;;32.00;37.40;;;;;;4871912;29;20419;-90
2021/09/02 13:33:33;;;;;;;14.67;13.13;;;29.40;38.50;;;;;;4872327;29;20429;-90
2021/09/02 13:35:59;;;;;;;12.33;11.13;;;29.70;39.90;;;;;;4869468;29;20414;-85
2021/09/02 13:38:25;;;;;;;14.47;13.17;;;30.40;40.90;;;;;;4874817;29;20403;-88
2021/09/02 13:40:58;;;;;;;16.83;15.33;;;31.20;39.70;;;;;;4870735;29;20653;-90
2021/09/02 13:43:26;;;;;;;10.53;9.63;;;31.30;37.30;;;;;;4866798;29;20575;-90
2021/09/02 13:45:52;;;;;;;11.57;10.60;;;31.60;39.30;;;;;;4868218;29;20427;-89
2021/09/02 13:48:17;;;;;;;10.40;9.40;;;32.90;37.60;;;;;;4869235;29;20519;-89
2021/09/02 13:50:43;;;;;;;12.47;11.30;;;32.80;36.50;;;;;;4853145;29;20189;-88
2021/09/02 13:53:11;;;;;;;15.83;14.53;;;;;;;;;;4869687;29;20268;-88
2021/09/02 13:55:37;;;;;;;10.33;9.60;;;;;;;;;;4850391;29;20193;-88
2021/09/02 13:58:03;;;;;;;11.90;10.80;;;;;;;;;;4872212;29;20530;-89
2021/09/02 14:00:29;;;;;;;12.27;11.20;;;;;;;;;;4879103;29;20419;-89
2021/09/02 14:02:58;;;;;;;12.80;11.60;;;;;;;;;;4872658;29;20431;-87
2021/09/02 14:05:26;;;;;;;15.13;13.50;;;31.00;37.80;;;;;;4866663;29;20481;-83
2021/09/02 14:07:52;;;;;;;17.27;15.77;;;31.90;39.30;;;;;;4869006;29;20939;-88
2021/09/02 14:10:18;;;;;;;14.13;13.13;;;30.30;39.20;;;;;;4865661;29;20474;-87
2021/09/02 14:12:48;;;;;;;14.13;12.97;;;29.60;40.20;;;;;;4868542;29;20182;-90
2021/09/02 14:15:16;;;;;;;12.43;11.43;;;29.40;40.30;;;;;;4871087;29;20450;-90
2021/09/02 14:17:42;;;;;;;12.40;11.20;;;29.90;40.50;;;;;;4871213;29;20431;-88
2021/09/02 14:20:09;;;;;;;12.07;10.40;;;30.40;39.90;;;;;;4872766;29;20438;-89
2021/09/02 14:22:36;;;;;;;13.60;12.23;;;30.60;39.60;;;;;;4871681;29;20522;-91
2021/09/02 14:25:02;;;;;;;11.47;10.53;;;30.90;39.10;;;;;;4870421;29;20542;-88
2021/09/02 14:27:28;;;;;;;16.57;14.97;;;31.10;39.30;;;;;;4870878;29;20462;-90
2021/09/02 14:29:54;;;;;;;13.03;11.77;;;30.50;38.40;;;;;;4864110;29;20442;-86
2021/09/02 14:32:19;;;;;;;11.87;10.97;;;30.40;39.30;;;;;;4870491;29;20184;-89
2021/09/02 14:34:48;;;;;;;11.50;10.60;;;30.80;38.50;;;;;;4870043;29;20185;-90
2021/09/02 14:37:15;;;;;;;11.20;10.20;;;31.30;38.80;;;;;;4866854;29;20225;-89
2021/09/02 14:39:42;;;;;;;11.70;10.60;;;32.00;38.20;;;;;;4865977;29;20427;-90
2021/09/02 14:42:08;;;;;;;13.17;11.83;;;32.60;37.50;;;;;;4849974;29;20502;-88
2021/09/02 14:44:34;;;;;;;11.60;10.40;;;32.90;37.20;;;;;;4866504;29;20434;-85
2021/09/02 14:47:01;;;;;;;11.90;10.80;;;32.80;36.20;;;;;;4863544;29;20206;-88
2021/09/02 14:49:29;;;;;;;11.07;10.23;;;32.70;36.50;;;;;;4866597;29;20166;-87
2021/09/02 14:52:12;;;;;;;11.50;10.63;;;31.70;38.00;;;;;;4863386;29;20418;-88
2021/09/02 14:54:38;;;;;;;12.40;11.20;;;30.50;38.80;;;;;;4864890;29;20446;-86
2021/09/02 14:57:04;;;;;;;21.50;16.53;;;29.50;41.00;;;;;;4865874;29;20440;-88
2021/09/02 14:59:29;;;;;;;20.23;17.53;;;28.60;41.60;;;;;;4867620;29;20233;-87
2021/09/02 15:01:55;;;;;;;20.17;18.13;;;26.50;41.30;;;;;;4850701;29;20426;-89
2021/09/02 15:04:21;;;;;;;14.70;13.07;;;27.30;43.50;;;;;;4869049;29;20580;-87
2021/09/02 15:06:47;;;;;;;13.57;12.23;;;26.90;44.10;;;;;;4867170;29;20466;-84
2021/09/02 15:09:12;;;;;;;14.87;13.60;;;26.60;45.10;;;;;;4867953;29;20220;-88
2021/09/02 15:11:38;;;;;;;14.97;13.60;;;26.30;45.00;;;;;;4867647;29;20572;-89
2021/09/02 15:14:04;;;;;;;15.03;13.57;;;26.80;46.00;;;;;;4867661;29;20239;-89
2021/09/02 15:16:34;;;;;;;15.30;13.53;;;27.00;46.10;;;;;;4856530;29;20193;-87
2021/09/02 15:19:00;;;;;;;14.97;13.50;;;27.00;46.80;;;;;;4866739;29;20443;-87
2021/09/02 15:21:26;;;;;;;16.60;13.70;;;25.70;46.30;;;;;;4875471;29;20423;-90
2021/09/02 15:24:02;;;;;;;15.30;13.77;;;26.30;47.70;;;;;;4855332;29;20438;-88
2021/09/02 15:26:28;;;;;;;16.80;14.90;;;26.50;47.60;;;;;;4874542;29;20418;-89
2021/09/02 15:28:56;;;;;;;16.60;13.80;;;25.70;47.70;;;;;;4874247;29;20449;-92
2021/09/02 15:31:22;;;;;;;24.07;18.70;;;25.60;47.40;;;;;;4855513;29;20201;-86
2021/09/02 15:33:50;;;;;;;17.37;14.13;;;26.80;47.80;;;;;;4872728;29;20423;-89
2021/09/02 15:36:16;;;;;;;19.07;17.17;;;26.40;48.20;;;;;;4869373;29;20174;-87
2021/09/02 15:38:41;;;;;;;16.30;14.57;;;25.60;47.20;;;;;;4864756;29;20583;-88
2021/09/02 15:41:07;;;;;;;15.33;14.10;;;25.30;47.50;;;;;;4865783;29;20270;-87
2021/09/02 15:43:33;;;;;;;15.00;13.80;;;25.40;47.70;;;;;;4865014;29;20661;-86
2021/09/02 15:46:01;;;;;;;15.03;13.73;;;25.40;47.70;;;;;;4866593;29;20475;-87
2021/09/02 15:48:27;;;;;;;38.50;29.53;;;25.60;48.20;;;;;;4864777;29;20243;-88
2021/09/02 15:50:58;;;;;;;22.30;18.03;;;25.70;48.00;;;;;;4867210;29;20415;-83
2021/09/02 15:53:24;;;;;;;19.33;17.37;;;25.50;48.20;;;;;;4865854;29;20426;-86
2021/09/02 15:55:49;;;;;;;17.37;15.73;;;25.10;48.40;;;;;;4865827;29;20415;-89
2021/09/02 15:58:15;;;;;;;17.93;16.53;;;25.40;48.50;;;;;;4865510;29;20728;-87
2021/09/02 16:00:41;;;;;;;19.50;17.70;;;25.50;48.60;;;;;;4864347;29;20285;-87
2021/09/02 16:03:07;;;;;;;24.60;14.87;;;25.30;48.50;;;;;;4863801;29;20174;-84
2021/09/02 16:05:32;;;;;;;17.20;15.40;;;25.40;48.90;;;;;;4865588;29;20190;-85
2021/09/02 16:07:58;;;;;;;20.13;18.23;;;25.40;49.00;;;;;;4864696;29;20674;-86
2021/09/02 16:10:24;;;;;;;19.53;17.63;;;25.30;49.00;;;;;;4862996;29;20186;-86
2021/09/02 16:12:49;;;;;;;19.27;17.37;;;25.20;49.20;;;;;;4864374;29;20643;-85
2021/09/02 16:15:17;;;;;;;28.87;19.10;;;25.10;49.50;;;;;;4864949;29;20230;-87
2021/09/02 16:17:42;;;;;;;17.70;15.63;;;25.10;49.80;;;;;;4865358;29;20510;-86
2021/09/02 16:20:08;;;;;;;22.47;16.47;;;24.90;49.80;;;;;;4864118;29;20166;-84
2021/09/02 16:22:37;;;;;;;18.83;17.00;;;24.70;50.40;;;;;;4865490;29;20249;-86
2021/09/02 16:25:03;;;;;;;17.30;14.90;;;24.50;50.40;;;;;;4862039;29;20427;-84
2021/09/02 16:27:29;;;;;;;19.53;17.00;;;24.40;51.40;;;;;;4862648;29;20509;-87
2021/09/02 16:29:56;;;;;;;18.33;16.53;;;24.50;51.20;;;;;;4847550;29;20218;-88
2021/09/02 16:32:25;;;;;;;19.43;17.47;;;24.40;51.60;;;;;;4863398;29;20419;-91
2021/09/02 16:34:51;;;;;;;17.27;15.43;;;24.20;51.40;;;;;;4850804;29;20467;-86
2021/09/02 16:37:17;;;;;;;19.30;17.50;;;24.20;51.70;;;;;;4877399;29;20453;-85
2021/09/02 16:39:42;;;;;;;22.10;16.30;;;24.30;52.00;;;;;;4890711;29;20410;-85
2021/09/02 16:42:08;;;;;;;20.10;16.90;;;23.90;52.40;;;;;;4888358;29;20218;-86
2021/09/02 16:44:33;;;;;;;15.13;13.97;;;23.80;52.70;;;;;;4197365;29;10000832;-84
2021/09/02 16:47:02;;;;;;;16.00;14.50;;;23.80;53.20;;;;;;4859498;29;20216;-85
2021/09/02 16:49:28;;;;;;;18.60;15.97;;;23.80;53.30;;;;;;4862667;29;20225;-85
2021/09/02 16:51:54;;;;;;;14.43;13.00;;;23.90;53.50;;;;;;4842639;29;20932;-82
2021/09/02 16:54:20;;;;;;;18.83;15.17;;;24.20;53.70;;;;;;4865443;29;20521;-86
2021/09/02 16:56:46;;;;;;;15.97;14.37;;;24.20;53.70;;;;;;4860839;29;20233;-85
2021/09/02 16:59:11;;;;;;;15.77;14.37;;;25.10;55.30;;;;;;4862084;29;20230;-88
2021/09/02 17:01:37;;;;;;;17.33;15.53;;;23.60;54.00;;;;;;4862783;29;20429;-87
2021/09/02 17:04:03;;;;;;;18.80;16.80;;;23.60;54.90;;;;;;4862029;29;20181;-83
2021/09/02 17:06:28;;;;;;;19.93;18.20;;;23.60;54.90;;;;;;4844139;29;20170;-87
2021/09/02 17:08:56;;;;;;;116.23;59.70;;;23.40;54.30;;;;;;4860580;29;20498;-86
2021/09/02 17:11:22;;;;;;;26.00;22.43;;;24.40;55.70;;;;;;4861417;29;20194;-88
2021/09/02 17:13:47;;;;;;;23.33;20.43;;;23.40;55.00;;;;;;4845387;29;20489;-87
2021/09/02 17:16:15;;;;;;;17.73;14.33;;;24.70;56.30;;;;;;4842599;29;20753;-85
2021/09/02 17:18:41;;;;;;;16.63;15.13;;;23.40;55.30;;;;;;4864358;29;20273;-87
2021/09/02 17:21:06;;;;;;;15.17;13.60;;;23.70;55.60;;;;;;4858373;29;20474;-86
2021/09/02 17:23:32;;;;;;;17.17;15.00;;;23.10;55.30;;;;;;4839996;29;20186;-86
2021/09/02 17:25:58;;;;;;;15.80;13.80;;;24.80;57.00;;;;;;4857466;29;20197;-86
2021/09/02 17:28:23;;;;;;;20.00;14.07;;;23.20;55.80;;;;;;4858504;29;20214;-88
2021/09/02 17:30:49;;;;;;;14.73;13.20;;;23.40;56.10;;;;;;4858804;29;20174;-86
2021/09/02 17:33:14;;;;;;;15.70;14.30;;;23.70;56.50;;;;;;4858769;29;20393;-87
2021/09/02 17:35:40;;;;;;;14.40;12.87;;;22.20;56.60;;;;;;4861158;29;20174;-86
2021/09/02 17:38:06;;;;;;;14.13;12.80;;;22.90;56.10;;;;;;4859697;29;20174;-85
2021/09/02 17:40:31;;;;;;;15.30;14.10;;;23.80;57.10;;;;;;4860439;29;20170;-87